sensor_id;sensor_type;location;lat;lon;timestamp;P1;durP1;ratioP1;P2;durP2;ratioP2
17340;SDS011;8788;49.930;8.660;2023-06-19T00:00:32;8.32;;;5.65;;
17340;SDS011;8788;49.930;8.660;2023-06-19T00:02:59;6.10;;;5.50;;
17340;SDS011;8788;49.930;8.660;2023-06-19T00:05:26;6.20;;;5.60;;
17340;SDS011;8788;49.930;8.660;2023-06-19T00:07:53;5.93;;;5.30;;
17340;SDS011;8788;49.930;8.660;2023-06-19T00:10:21;6.35;;;5.75;;
17340;SDS011;8788;49.930;8.660;2023-06-19T00:12:49;6.47;;;5.53;;
17340;SDS011;8788;49.930;8.660;2023-06-19T00:15:16;5.80;;;5.30;;
17340;SDS011;8788;49.930;8.660;2023-06-19T00:17:43;5.97;;;5.28;;
17340;SDS011;8788;49.930;8.660;2023-06-19T00:20:10;5.85;;;5.25;;
17340;SDS011;8788;49.930;8.660;2023-06-19T00:22:38;5.70;;;5.20;;
17340;SDS011;8788;49.930;8.660;2023-06-19T00:25:06;5.07;;;4.68;;
17340;SDS011;8788;49.930;8.660;2023-06-19T00:27:35;6.07;;;5.47;;
17340;SDS011;8788;49.930;8.660;2023-06-19T00:30:04;7.03;;;6.03;;
17340;SDS011;8788;49.930;8.660;2023-06-19T00:32:32;6.35;;;5.45;;
17340;SDS011;8788;49.930;8.660;2023-06-19T00:35:06;5.53;;;5.00;;
17340;SDS011;8788;49.930;8.660;2023-06-19T00:37:34;6.57;;;5.47;;
17340;SDS011;8788;49.930;8.660;2023-06-19T00:40:01;6.10;;;5.57;;
17340;SDS011;8788;49.930;8.660;2023-06-19T00:42:29;6.80;;;6.18;;
17340;SDS011;8788;49.930;8.660;2023-06-19T00:44:57;6.40;;;5.75;;
17340;SDS011;8788;49.930;8.660;2023-06-19T00:47:25;6.35;;;5.47;;
17340;SDS011;8788;49.930;8.660;2023-06-19T00:49:52;7.68;;;5.50;;
17340;SDS011;8788;49.930;8.660;2023-06-19T00:52:19;6.15;;;5.57;;
17340;SDS011;8788;49.930;8.660;2023-06-19T00:54:47;6.45;;;5.93;;
17340;SDS011;8788;49.930;8.660;2023-06-19T00:57:15;6.90;;;6.30;;
17340;SDS011;8788;49.930;8.660;2023-06-19T00:59:42;8.40;;;5.75;;
17340;SDS011;8788;49.930;8.660;2023-06-19T01:02:11;6.65;;;6.05;;
17340;SDS011;8788;49.930;8.660;2023-06-19T01:04:39;9.13;;;6.47;;
17340;SDS011;8788;49.930;8.660;2023-06-19T01:07:08;8.10;;;7.32;;
17340;SDS011;8788;49.930;8.660;2023-06-19T01:09:39;7.00;;;6.40;;
17340;SDS011;8788;49.930;8.660;2023-06-19T01:12:15;8.45;;;7.38;;
17340;SDS011;8788;49.930;8.660;2023-06-19T01:14:48;7.53;;;6.82;;
17340;SDS011;8788;49.930;8.660;2023-06-19T01:17:23;6.30;;;5.80;;
17340;SDS011;8788;49.930;8.660;2023-06-19T01:19:53;8.48;;;6.25;;
17340;SDS011;8788;49.930;8.660;2023-06-19T01:22:25;8.75;;;7.55;;
17340;SDS011;8788;49.930;8.660;2023-06-19T01:24:53;7.55;;;6.75;;
17340;SDS011;8788;49.930;8.660;2023-06-19T01:27:20;6.78;;;6.18;;
17340;SDS011;8788;49.930;8.660;2023-06-19T01:29:47;7.32;;;6.63;;
17340;SDS011;8788;49.930;8.660;2023-06-19T01:32:15;6.53;;;5.90;;
17340;SDS011;8788;49.930;8.660;2023-06-19T01:34:47;7.47;;;5.78;;
17340;SDS011;8788;49.930;8.660;2023-06-19T01:37:15;7.47;;;6.28;;
17340;SDS011;8788;49.930;8.660;2023-06-19T01:39:44;6.85;;;6.25;;
17340;SDS011;8788;49.930;8.660;2023-06-19T01:42:13;6.93;;;6.32;;
17340;SDS011;8788;49.930;8.660;2023-06-19T01:44:41;8.10;;;5.90;;
17340;SDS011;8788;49.930;8.660;2023-06-19T01:47:09;7.32;;;5.82;;
17340;SDS011;8788;49.930;8.660;2023-06-19T01:49:37;7.20;;;6.50;;
17340;SDS011;8788;49.930;8.660;2023-06-19T01:52:05;6.90;;;6.20;;
17340;SDS011;8788;49.930;8.660;2023-06-19T01:54:32;6.93;;;6.25;;
17340;SDS011;8788;49.930;8.660;2023-06-19T01:57:00;9.35;;;5.80;;
17340;SDS011;8788;49.930;8.660;2023-06-19T01:59:29;6.35;;;5.75;;
17340;SDS011;8788;49.930;8.660;2023-06-19T02:01:57;7.07;;;6.38;;
17340;SDS011;8788;49.930;8.660;2023-06-19T02:04:24;6.57;;;5.97;;
17340;SDS011;8788;49.930;8.660;2023-06-19T02:06:51;7.68;;;6.05;;
17340;SDS011;8788;49.930;8.660;2023-06-19T02:09:21;7.22;;;6.53;;
17340;SDS011;8788;49.930;8.660;2023-06-19T02:12:01;7.60;;;6.72;;
17340;SDS011;8788;49.930;8.660;2023-06-19T02:14:29;8.23;;;6.88;;
17340;SDS011;8788;49.930;8.660;2023-06-19T02:16:58;7.65;;;6.95;;
17340;SDS011;8788;49.930;8.660;2023-06-19T02:19:25;6.78;;;6.18;;
17340;SDS011;8788;49.930;8.660;2023-06-19T02:21:53;7.85;;;7.15;;
17340;SDS011;8788;49.930;8.660;2023-06-19T02:24:20;9.90;;;6.57;;
17340;SDS011;8788;49.930;8.660;2023-06-19T02:26:47;8.57;;;6.72;;
17340;SDS011;8788;49.930;8.660;2023-06-19T02:29:16;7.00;;;6.32;;
17340;SDS011;8788;49.930;8.660;2023-06-19T02:31:43;8.60;;;6.38;;
17340;SDS011;8788;49.930;8.660;2023-06-19T02:34:11;7.85;;;6.25;;
17340;SDS011;8788;49.930;8.660;2023-06-19T02:36:38;6.97;;;6.38;;
17340;SDS011;8788;49.930;8.660;2023-06-19T02:39:07;14.50;;;7.05;;
17340;SDS011;8788;49.930;8.660;2023-06-19T02:41:35;6.72;;;5.68;;
17340;SDS011;8788;49.930;8.660;2023-06-19T02:44:03;10.45;;;7.10;;
17340;SDS011;8788;49.930;8.660;2023-06-19T02:46:31;7.63;;;6.45;;
17340;SDS011;8788;49.930;8.660;2023-06-19T02:48:59;7.15;;;6.45;;
17340;SDS011;8788;49.930;8.660;2023-06-19T02:51:26;8.63;;;6.38;;
17340;SDS011;8788;49.930;8.660;2023-06-19T02:53:53;9.50;;;6.45;;
17340;SDS011;8788;49.930;8.660;2023-06-19T02:56:21;9.18;;;6.45;;
17340;SDS011;8788;49.930;8.660;2023-06-19T02:58:48;6.47;;;5.88;;
17340;SDS011;8788;49.930;8.660;2023-06-19T03:01:15;7.00;;;6.30;;
17340;SDS011;8788;49.930;8.660;2023-06-19T03:03:45;8.07;;;6.32;;
17340;SDS011;8788;49.930;8.660;2023-06-19T03:06:13;8.10;;;6.65;;
17340;SDS011;8788;49.930;8.660;2023-06-19T03:08:40;11.88;;;6.35;;
17340;SDS011;8788;49.930;8.660;2023-06-19T03:11:07;6.95;;;5.90;;
17340;SDS011;8788;49.930;8.660;2023-06-19T03:13:43;9.40;;;6.38;;
17340;SDS011;8788;49.930;8.660;2023-06-19T03:16:11;5.90;;;5.40;;
17340;SDS011;8788;49.930;8.660;2023-06-19T03:18:38;7.05;;;5.75;;
17340;SDS011;8788;49.930;8.660;2023-06-19T03:21:06;6.55;;;6.00;;
17340;SDS011;8788;49.930;8.660;2023-06-19T03:23:34;6.43;;;5.82;;
17340;SDS011;8788;49.930;8.660;2023-06-19T03:26:01;7.07;;;6.35;;
17340;SDS011;8788;49.930;8.660;2023-06-19T03:28:28;8.35;;;5.53;;
17340;SDS011;8788;49.930;8.660;2023-06-19T03:30:56;6.85;;;6.07;;
17340;SDS011;8788;49.930;8.660;2023-06-19T03:33:24;6.15;;;5.60;;
17340;SDS011;8788;49.930;8.660;2023-06-19T03:35:51;8.13;;;5.65;;
17340;SDS011;8788;49.930;8.660;2023-06-19T03:38:38;6.97;;;5.38;;
17340;SDS011;8788;49.930;8.660;2023-06-19T03:41:07;6.07;;;5.45;;
17340;SDS011;8788;49.930;8.660;2023-06-19T03:43:35;8.98;;;5.30;;
17340;SDS011;8788;49.930;8.660;2023-06-19T03:46:03;7.28;;;5.65;;
17340;SDS011;8788;49.930;8.660;2023-06-19T03:48:30;5.70;;;5.20;;
17340;SDS011;8788;49.930;8.660;2023-06-19T03:50:57;8.55;;;5.10;;
17340;SDS011;8788;49.930;8.660;2023-06-19T03:53:26;5.32;;;4.88;;
17340;SDS011;8788;49.930;8.660;2023-06-19T03:55:55;5.85;;;5.35;;
17340;SDS011;8788;49.930;8.660;2023-06-19T03:58:22;5.50;;;5.07;;
17340;SDS011;8788;49.930;8.660;2023-06-19T04:00:51;6.60;;;5.47;;
17340;SDS011;8788;49.930;8.660;2023-06-19T04:03:18;5.50;;;4.95;;
17340;SDS011;8788;49.930;8.660;2023-06-19T04:05:45;7.80;;;5.72;;
17340;SDS011;8788;49.930;8.660;2023-06-19T04:08:12;6.20;;;5.60;;
17340;SDS011;8788;49.930;8.660;2023-06-19T04:10:42;8.05;;;6.63;;
17340;SDS011;8788;49.930;8.660;2023-06-19T04:13:11;6.60;;;5.85;;
17340;SDS011;8788;49.930;8.660;2023-06-19T04:15:44;6.93;;;6.18;;
17340;SDS011;8788;49.930;8.660;2023-06-19T04:18:11;5.68;;;5.18;;
17340;SDS011;8788;49.930;8.660;2023-06-19T04:20:41;6.35;;;5.63;;
17340;SDS011;8788;49.930;8.660;2023-06-19T04:23:10;5.50;;;5.00;;
17340;SDS011;8788;49.930;8.660;2023-06-19T04:25:38;5.07;;;4.68;;
17340;SDS011;8788;49.930;8.660;2023-06-19T04:28:05;5.72;;;4.90;;
17340;SDS011;8788;49.930;8.660;2023-06-19T04:30:33;5.88;;;5.28;;
17340;SDS011;8788;49.930;8.660;2023-06-19T04:33:00;5.72;;;4.70;;
17340;SDS011;8788;49.930;8.660;2023-06-19T04:35:27;10.13;;;5.05;;
17340;SDS011;8788;49.930;8.660;2023-06-19T04:37:54;5.00;;;4.60;;
17340;SDS011;8788;49.930;8.660;2023-06-19T04:40:21;5.00;;;4.60;;
17340;SDS011;8788;49.930;8.660;2023-06-19T04:42:50;6.85;;;4.80;;
17340;SDS011;8788;49.930;8.660;2023-06-19T04:45:19;6.53;;;4.97;;
17340;SDS011;8788;49.930;8.660;2023-06-19T04:47:47;5.63;;;5.03;;
17340;SDS011;8788;49.930;8.660;2023-06-19T04:50:14;5.53;;;4.93;;
17340;SDS011;8788;49.930;8.660;2023-06-19T04:52:42;4.53;;;4.10;;
17340;SDS011;8788;49.930;8.660;2023-06-19T04:55:09;5.85;;;5.35;;
17340;SDS011;8788;49.930;8.660;2023-06-19T04:57:36;6.47;;;4.20;;
17340;SDS011;8788;49.930;8.660;2023-06-19T05:00:04;5.65;;;4.30;;
17340;SDS011;8788;49.930;8.660;2023-06-19T05:02:32;5.38;;;3.78;;
17340;SDS011;8788;49.930;8.660;2023-06-19T05:05:01;5.93;;;3.90;;
17340;SDS011;8788;49.930;8.660;2023-06-19T05:07:29;6.43;;;4.00;;
17340;SDS011;8788;49.930;8.660;2023-06-19T05:09:56;4.55;;;3.38;;
17340;SDS011;8788;49.930;8.660;2023-06-19T05:12:24;4.15;;;3.75;;
17340;SDS011;8788;49.930;8.660;2023-06-19T05:14:51;5.18;;;3.55;;
17340;SDS011;8788;49.930;8.660;2023-06-19T05:17:18;3.40;;;3.10;;
17340;SDS011;8788;49.930;8.660;2023-06-19T05:19:45;4.03;;;3.72;;
17340;SDS011;8788;49.930;8.660;2023-06-19T05:22:13;4.13;;;3.60;;
17340;SDS011;8788;49.930;8.660;2023-06-19T05:24:43;6.72;;;3.97;;
17340;SDS011;8788;49.930;8.660;2023-06-19T05:27:10;4.35;;;3.47;;
17340;SDS011;8788;49.930;8.660;2023-06-19T05:29:37;5.93;;;3.45;;
17340;SDS011;8788;49.930;8.660;2023-06-19T05:32:04;4.10;;;3.72;;
17340;SDS011;8788;49.930;8.660;2023-06-19T05:34:32;3.70;;;3.40;;
17340;SDS011;8788;49.930;8.660;2023-06-19T05:36:59;4.57;;;3.85;;
17340;SDS011;8788;49.930;8.660;2023-06-19T05:39:30;4.18;;;3.88;;
17340;SDS011;8788;49.930;8.660;2023-06-19T05:41:57;9.57;;;3.70;;
17340;SDS011;8788;49.930;8.660;2023-06-19T05:44:24;4.05;;;3.20;;
17340;SDS011;8788;49.930;8.660;2023-06-19T05:46:51;3.45;;;3.15;;
17340;SDS011;8788;49.930;8.660;2023-06-19T05:49:18;3.13;;;2.83;;
17340;SDS011;8788;49.930;8.660;2023-06-19T05:51:45;3.30;;;3.00;;
17340;SDS011;8788;49.930;8.660;2023-06-19T05:54:13;4.68;;;2.80;;
17340;SDS011;8788;49.930;8.660;2023-06-19T05:56:41;3.45;;;2.90;;
17340;SDS011;8788;49.930;8.660;2023-06-19T05:59:08;4.15;;;3.05;;
17340;SDS011;8788;49.930;8.660;2023-06-19T06:01:36;2.67;;;2.47;;
17340;SDS011;8788;49.930;8.660;2023-06-19T06:04:03;3.78;;;2.88;;
17340;SDS011;8788;49.930;8.660;2023-06-19T06:06:30;5.18;;;3.03;;
17340;SDS011;8788;49.930;8.660;2023-06-19T06:08:57;2.65;;;2.45;;
17340;SDS011;8788;49.930;8.660;2023-06-19T06:11:24;4.82;;;2.67;;
17340;SDS011;8788;49.930;8.660;2023-06-19T06:13:53;5.35;;;2.88;;
17340;SDS011;8788;49.930;8.660;2023-06-19T06:16:19;4.38;;;3.00;;
17340;SDS011;8788;49.930;8.660;2023-06-19T06:18:47;8.10;;;2.47;;
17340;SDS011;8788;49.930;8.660;2023-06-19T06:21:14;3.50;;;2.60;;
17340;SDS011;8788;49.930;8.660;2023-06-19T06:23:41;3.22;;;2.53;;
17340;SDS011;8788;49.930;8.660;2023-06-19T06:26:10;3.00;;;2.80;;
17340;SDS011;8788;49.930;8.660;2023-06-19T06:28:37;4.90;;;3.10;;
17340;SDS011;8788;49.930;8.660;2023-06-19T06:31:06;4.63;;;2.67;;
17340;SDS011;8788;49.930;8.660;2023-06-19T06:33:33;7.40;;;2.75;;
17340;SDS011;8788;49.930;8.660;2023-06-19T06:36:00;5.88;;;3.40;;
17340;SDS011;8788;49.930;8.660;2023-06-19T06:38:27;2.53;;;2.33;;
17340;SDS011;8788;49.930;8.660;2023-06-19T06:40:54;4.00;;;2.88;;
17340;SDS011;8788;49.930;8.660;2023-06-19T06:43:21;2.92;;;2.60;;
17340;SDS011;8788;49.930;8.660;2023-06-19T06:45:48;3.38;;;2.55;;
17340;SDS011;8788;49.930;8.660;2023-06-19T06:48:17;3.22;;;2.92;;
17340;SDS011;8788;49.930;8.660;2023-06-19T06:50:44;3.58;;;2.90;;
17340;SDS011;8788;49.930;8.660;2023-06-19T06:53:11;3.20;;;2.90;;
17340;SDS011;8788;49.930;8.660;2023-06-19T06:55:38;2.53;;;2.33;;
17340;SDS011;8788;49.930;8.660;2023-06-19T06:58:05;2.88;;;2.65;;
17340;SDS011;8788;49.930;8.660;2023-06-19T07:00:32;2.95;;;2.53;;
17340;SDS011;8788;49.930;8.660;2023-06-19T07:02:59;4.90;;;2.90;;
17340;SDS011;8788;49.930;8.660;2023-06-19T07:05:27;4.30;;;3.22;;
17340;SDS011;8788;49.930;8.660;2023-06-19T07:07:55;2.75;;;2.53;;
17340;SDS011;8788;49.930;8.660;2023-06-19T07:10:22;2.88;;;2.58;;
17340;SDS011;8788;49.930;8.660;2023-06-19T07:12:49;5.03;;;2.70;;
17340;SDS011;8788;49.930;8.660;2023-06-19T07:15:17;3.22;;;2.90;;
17340;SDS011;8788;49.930;8.660;2023-06-19T07:17:44;4.10;;;2.75;;
17340;SDS011;8788;49.930;8.660;2023-06-19T07:20:13;3.30;;;2.85;;
17340;SDS011;8788;49.930;8.660;2023-06-19T07:22:41;3.28;;;2.97;;
17340;SDS011;8788;49.930;8.660;2023-06-19T07:25:09;3.13;;;2.58;;
17340;SDS011;8788;49.930;8.660;2023-06-19T07:27:37;5.88;;;2.75;;
17340;SDS011;8788;49.930;8.660;2023-06-19T07:30:05;2.72;;;2.53;;
17340;SDS011;8788;49.930;8.660;2023-06-19T07:32:33;3.60;;;2.90;;
17340;SDS011;8788;49.930;8.660;2023-06-19T07:35:00;4.82;;;2.78;;
17340;SDS011;8788;49.930;8.660;2023-06-19T07:37:27;3.20;;;2.92;;
17340;SDS011;8788;49.930;8.660;2023-06-19T07:39:55;3.30;;;3.00;;
17340;SDS011;8788;49.930;8.660;2023-06-19T07:42:22;4.00;;;3.03;;
17340;SDS011;8788;49.930;8.660;2023-06-19T07:44:49;4.13;;;2.95;;
17340;SDS011;8788;49.930;8.660;2023-06-19T07:47:18;4.07;;;3.08;;
17340;SDS011;8788;49.930;8.660;2023-06-19T07:49:45;4.38;;;3.03;;
17340;SDS011;8788;49.930;8.660;2023-06-19T07:52:12;4.28;;;3.15;;
17340;SDS011;8788;49.930;8.660;2023-06-19T07:54:53;3.20;;;2.90;;
17340;SDS011;8788;49.930;8.660;2023-06-19T07:57:23;3.55;;;2.85;;
17340;SDS011;8788;49.930;8.660;2023-06-19T07:59:53;3.08;;;2.67;;
17340;SDS011;8788;49.930;8.660;2023-06-19T08:02:21;4.65;;;3.53;;
17340;SDS011;8788;49.930;8.660;2023-06-19T08:04:48;4.63;;;2.58;;
17340;SDS011;8788;49.930;8.660;2023-06-19T08:07:15;3.65;;;3.30;;
17340;SDS011;8788;49.930;8.660;2023-06-19T08:09:42;5.50;;;3.30;;
17340;SDS011;8788;49.930;8.660;2023-06-19T08:12:09;3.75;;;3.10;;
17340;SDS011;8788;49.930;8.660;2023-06-19T08:14:38;3.40;;;3.10;;
17340;SDS011;8788;49.930;8.660;2023-06-19T08:17:05;4.40;;;3.08;;
17340;SDS011;8788;49.930;8.660;2023-06-19T08:19:32;3.67;;;3.22;;
17340;SDS011;8788;49.930;8.660;2023-06-19T08:21:59;5.75;;;3.08;;
17340;SDS011;8788;49.930;8.660;2023-06-19T08:24:27;4.45;;;3.20;;
17340;SDS011;8788;49.930;8.660;2023-06-19T08:26:55;3.83;;;3.45;;
17340;SDS011;8788;49.930;8.660;2023-06-19T08:29:22;3.30;;;3.00;;
17340;SDS011;8788;49.930;8.660;2023-06-19T08:31:50;3.25;;;3.05;;
17340;SDS011;8788;49.930;8.660;2023-06-19T08:34:17;4.97;;;3.50;;
17340;SDS011;8788;49.930;8.660;2023-06-19T08:36:44;3.65;;;3.35;;
17340;SDS011;8788;49.930;8.660;2023-06-19T08:39:11;3.78;;;3.30;;
17340;SDS011;8788;49.930;8.660;2023-06-19T08:41:38;5.95;;;3.50;;
17340;SDS011;8788;49.930;8.660;2023-06-19T08:44:06;4.13;;;3.00;;
17340;SDS011;8788;49.930;8.660;2023-06-19T08:46:34;5.00;;;3.70;;
17340;SDS011;8788;49.930;8.660;2023-06-19T08:49:03;4.38;;;3.13;;
17340;SDS011;8788;49.930;8.660;2023-06-19T08:51:31;3.90;;;3.50;;
17340;SDS011;8788;49.930;8.660;2023-06-19T08:54:02;5.18;;;3.55;;
17340;SDS011;8788;49.930;8.660;2023-06-19T08:56:30;3.55;;;3.15;;
17340;SDS011;8788;49.930;8.660;2023-06-19T08:59:07;5.70;;;3.03;;
17340;SDS011;8788;49.930;8.660;2023-06-19T09:01:35;4.88;;;3.25;;
17340;SDS011;8788;49.930;8.660;2023-06-19T09:04:09;3.95;;;3.55;;
17340;SDS011;8788;49.930;8.660;2023-06-19T09:06:45;3.92;;;3.25;;
17340;SDS011;8788;49.930;8.660;2023-06-19T09:09:15;3.15;;;2.75;;
17340;SDS011;8788;49.930;8.660;2023-06-19T09:11:42;3.05;;;2.85;;
17340;SDS011;8788;49.930;8.660;2023-06-19T09:14:10;6.85;;;3.28;;
17340;SDS011;8788;49.930;8.660;2023-06-19T09:16:38;3.13;;;2.92;;
17340;SDS011;8788;49.930;8.660;2023-06-19T09:19:06;4.82;;;3.03;;
17340;SDS011;8788;49.930;8.660;2023-06-19T09:21:36;5.40;;;3.83;;
17340;SDS011;8788;49.930;8.660;2023-06-19T09:24:05;6.28;;;3.75;;
17340;SDS011;8788;49.930;8.660;2023-06-19T09:26:34;5.53;;;3.38;;
17340;SDS011;8788;49.930;8.660;2023-06-19T09:29:11;6.30;;;3.20;;
17340;SDS011;8788;49.930;8.660;2023-06-19T09:31:38;5.40;;;3.22;;
17340;SDS011;8788;49.930;8.660;2023-06-19T09:34:06;3.72;;;2.70;;
17340;SDS011;8788;49.930;8.660;2023-06-19T09:36:34;5.00;;;3.40;;
17340;SDS011;8788;49.930;8.660;2023-06-19T09:39:03;4.38;;;3.92;;
17340;SDS011;8788;49.930;8.660;2023-06-19T09:41:30;5.20;;;3.65;;
17340;SDS011;8788;49.930;8.660;2023-06-19T09:43:58;5.43;;;4.00;;
17340;SDS011;8788;49.930;8.660;2023-06-19T09:46:29;4.55;;;3.45;;
17340;SDS011;8788;49.930;8.660;2023-06-19T09:48:58;3.67;;;3.22;;
17340;SDS011;8788;49.930;8.660;2023-06-19T09:51:30;4.57;;;4.13;;
17340;SDS011;8788;49.930;8.660;2023-06-19T09:54:00;4.38;;;3.00;;
17340;SDS011;8788;49.930;8.660;2023-06-19T09:56:29;3.58;;;3.25;;
17340;SDS011;8788;49.930;8.660;2023-06-19T09:58:57;5.10;;;3.30;;
17340;SDS011;8788;49.930;8.660;2023-06-19T10:01:26;3.33;;;3.00;;
17340;SDS011;8788;49.930;8.660;2023-06-19T10:04:04;3.53;;;3.22;;
17340;SDS011;8788;49.930;8.660;2023-06-19T10:06:32;3.50;;;3.10;;
17340;SDS011;8788;49.930;8.660;2023-06-19T10:09:10;4.40;;;3.60;;
17340;SDS011;8788;49.930;8.660;2023-06-19T10:11:44;4.25;;;3.28;;
17340;SDS011;8788;49.930;8.660;2023-06-19T10:14:12;3.42;;;3.00;;
17340;SDS011;8788;49.930;8.660;2023-06-19T10:16:40;4.93;;;3.28;;
17340;SDS011;8788;49.930;8.660;2023-06-19T10:19:11;4.82;;;3.75;;
17340;SDS011;8788;49.930;8.660;2023-06-19T10:21:46;3.42;;;3.20;;
17340;SDS011;8788;49.930;8.660;2023-06-19T10:24:17;3.30;;;3.00;;
17340;SDS011;8788;49.930;8.660;2023-06-19T10:26:55;3.67;;;2.72;;
17340;SDS011;8788;49.930;8.660;2023-06-19T10:29:24;3.17;;;2.88;;
17340;SDS011;8788;49.930;8.660;2023-06-19T10:31:52;2.95;;;2.65;;
17340;SDS011;8788;49.930;8.660;2023-06-19T10:34:22;4.63;;;2.97;;
17340;SDS011;8788;49.930;8.660;2023-06-19T10:36:59;3.75;;;3.03;;
17340;SDS011;8788;49.930;8.660;2023-06-19T10:39:27;6.20;;;3.22;;
17340;SDS011;8788;49.930;8.660;2023-06-19T10:41:54;3.05;;;2.85;;
17340;SDS011;8788;49.930;8.660;2023-06-19T10:44:22;3.53;;;2.97;;
17340;SDS011;8788;49.930;8.660;2023-06-19T10:46:52;6.07;;;3.45;;
17340;SDS011;8788;49.930;8.660;2023-06-19T10:49:19;4.25;;;3.00;;
17340;SDS011;8788;49.930;8.660;2023-06-19T10:51:48;3.78;;;2.92;;
17340;SDS011;8788;49.930;8.660;2023-06-19T10:54:15;2.83;;;2.63;;
17340;SDS011;8788;49.930;8.660;2023-06-19T10:56:44;4.00;;;3.13;;
17340;SDS011;8788;49.930;8.660;2023-06-19T10:59:13;2.78;;;2.58;;
17340;SDS011;8788;49.930;8.660;2023-06-19T11:01:43;4.15;;;3.00;;
17340;SDS011;8788;49.930;8.660;2023-06-19T11:04:12;3.67;;;3.38;;
17340;SDS011;8788;49.930;8.660;2023-06-19T11:06:41;3.55;;;3.22;;
17340;SDS011;8788;49.930;8.660;2023-06-19T11:09:10;3.70;;;3.40;;
17340;SDS011;8788;49.930;8.660;2023-06-19T11:11:38;3.47;;;3.17;;
17340;SDS011;8788;49.930;8.660;2023-06-19T11:14:08;7.15;;;3.20;;
17340;SDS011;8788;49.930;8.660;2023-06-19T11:16:38;3.45;;;3.15;;
17340;SDS011;8788;49.930;8.660;2023-06-19T11:19:06;4.88;;;2.90;;
17340;SDS011;8788;49.930;8.660;2023-06-19T11:21:35;3.28;;;3.00;;
17340;SDS011;8788;49.930;8.660;2023-06-19T11:24:04;3.30;;;2.85;;
17340;SDS011;8788;49.930;8.660;2023-06-19T11:26:34;3.17;;;2.88;;
17340;SDS011;8788;49.930;8.660;2023-06-19T11:29:14;3.00;;;2.80;;
17340;SDS011;8788;49.930;8.660;2023-06-19T11:31:42;4.25;;;2.80;;
17340;SDS011;8788;49.930;8.660;2023-06-19T11:34:09;2.83;;;2.60;;
17340;SDS011;8788;49.930;8.660;2023-06-19T11:36:36;3.90;;;2.65;;
17340;SDS011;8788;49.930;8.660;2023-06-19T11:39:04;3.03;;;2.70;;
17340;SDS011;8788;49.930;8.660;2023-06-19T11:41:35;3.10;;;2.90;;
17340;SDS011;8788;49.930;8.660;2023-06-19T11:44:03;5.65;;;3.35;;
17340;SDS011;8788;49.930;8.660;2023-06-19T11:46:33;4.50;;;2.67;;
17340;SDS011;8788;49.930;8.660;2023-06-19T11:49:07;3.55;;;2.97;;
17340;SDS011;8788;49.930;8.660;2023-06-19T11:51:35;2.70;;;2.47;;
17340;SDS011;8788;49.930;8.660;2023-06-19T11:54:05;3.10;;;2.28;;
17340;SDS011;8788;49.930;8.660;2023-06-19T11:56:33;3.55;;;2.72;;
17340;SDS011;8788;49.930;8.660;2023-06-19T11:59:00;2.70;;;2.28;;
17340;SDS011;8788;49.930;8.660;2023-06-19T12:01:28;3.03;;;2.72;;
17340;SDS011;8788;49.930;8.660;2023-06-19T12:03:57;9.27;;;2.88;;
17340;SDS011;8788;49.930;8.660;2023-06-19T12:06:25;3.95;;;2.63;;
17340;SDS011;8788;49.930;8.660;2023-06-19T12:08:52;2.70;;;2.50;;
17340;SDS011;8788;49.930;8.660;2023-06-19T12:11:19;2.70;;;2.50;;
17340;SDS011;8788;49.930;8.660;2023-06-19T12:13:46;2.35;;;2.20;;
17340;SDS011;8788;49.930;8.660;2023-06-19T12:16:14;3.35;;;2.17;;
17340;SDS011;8788;49.930;8.660;2023-06-19T12:18:41;2.40;;;2.20;;
17340;SDS011;8788;49.930;8.660;2023-06-19T12:21:10;4.97;;;2.67;;
17340;SDS011;8788;49.930;8.660;2023-06-19T12:23:37;2.60;;;2.40;;
17340;SDS011;8788;49.930;8.660;2023-06-19T12:26:04;3.33;;;2.42;;
17340;SDS011;8788;49.930;8.660;2023-06-19T12:28:31;3.20;;;2.83;;
17340;SDS011;8788;49.930;8.660;2023-06-19T12:30:58;6.35;;;2.60;;
17340;SDS011;8788;49.930;8.660;2023-06-19T12:33:25;2.88;;;2.60;;
17340;SDS011;8788;49.930;8.660;2023-06-19T12:35:58;2.70;;;2.50;;
17340;SDS011;8788;49.930;8.660;2023-06-19T12:38:27;3.33;;;2.45;;
17340;SDS011;8788;49.930;8.660;2023-06-19T12:40:54;6.68;;;2.08;;
17340;SDS011;8788;49.930;8.660;2023-06-19T12:43:21;4.05;;;2.83;;
17340;SDS011;8788;49.930;8.660;2023-06-19T12:45:48;2.50;;;2.30;;
17340;SDS011;8788;49.930;8.660;2023-06-19T12:48:15;4.30;;;3.00;;
17340;SDS011;8788;49.930;8.660;2023-06-19T12:50:42;3.03;;;2.40;;
17340;SDS011;8788;49.930;8.660;2023-06-19T12:53:09;5.22;;;2.67;;
17340;SDS011;8788;49.930;8.660;2023-06-19T12:55:38;3.47;;;2.83;;
17340;SDS011;8788;49.930;8.660;2023-06-19T12:58:05;3.03;;;2.72;;
17340;SDS011;8788;49.930;8.660;2023-06-19T13:00:32;3.13;;;2.92;;
17340;SDS011;8788;49.930;8.660;2023-06-19T13:02:59;3.63;;;2.40;;
17340;SDS011;8788;49.930;8.660;2023-06-19T13:05:26;2.80;;;2.60;;
17340;SDS011;8788;49.930;8.660;2023-06-19T13:07:53;3.08;;;2.55;;
17340;SDS011;8788;49.930;8.660;2023-06-19T13:10:20;3.20;;;2.33;;
17340;SDS011;8788;49.930;8.660;2023-06-19T13:12:49;7.22;;;3.00;;
17340;SDS011;8788;49.930;8.660;2023-06-19T13:15:16;3.03;;;2.83;;
17340;SDS011;8788;49.930;8.660;2023-06-19T13:17:43;3.30;;;3.00;;
17340;SDS011;8788;49.930;8.660;2023-06-19T13:20:10;3.35;;;3.05;;
17340;SDS011;8788;49.930;8.660;2023-06-19T13:22:39;4.57;;;3.03;;
17340;SDS011;8788;49.930;8.660;2023-06-19T13:25:06;4.70;;;3.20;;
17340;SDS011;8788;49.930;8.660;2023-06-19T13:27:34;4.18;;;2.50;;
17340;SDS011;8788;49.930;8.660;2023-06-19T13:30:02;5.00;;;2.47;;
17340;SDS011;8788;49.930;8.660;2023-06-19T13:32:30;6.65;;;2.22;;
17340;SDS011;8788;49.930;8.660;2023-06-19T13:34:57;4.38;;;2.53;;
17340;SDS011;8788;49.930;8.660;2023-06-19T13:37:24;2.75;;;2.53;;
17340;SDS011;8788;49.930;8.660;2023-06-19T13:39:51;3.20;;;2.90;;
17340;SDS011;8788;49.930;8.660;2023-06-19T13:42:18;3.28;;;2.67;;
17340;SDS011;8788;49.930;8.660;2023-06-19T13:44:45;3.95;;;2.80;;
17340;SDS011;8788;49.930;8.660;2023-06-19T13:47:14;2.70;;;2.50;;
17340;SDS011;8788;49.930;8.660;2023-06-19T13:49:41;2.63;;;2.42;;
17340;SDS011;8788;49.930;8.660;2023-06-19T13:52:08;2.80;;;2.60;;
17340;SDS011;8788;49.930;8.660;2023-06-19T13:54:35;3.22;;;2.85;;
17340;SDS011;8788;49.930;8.660;2023-06-19T13:57:02;5.15;;;2.80;;
17340;SDS011;8788;49.930;8.660;2023-06-19T13:59:30;4.10;;;3.35;;
17340;SDS011;8788;49.930;8.660;2023-06-19T14:01:57;3.00;;;2.72;;
17340;SDS011;8788;49.930;8.660;2023-06-19T14:04:25;2.97;;;2.50;;
17340;SDS011;8788;49.930;8.660;2023-06-19T14:06:52;2.55;;;2.35;;
17340;SDS011;8788;49.930;8.660;2023-06-19T14:09:20;2.65;;;2.45;;
17340;SDS011;8788;49.930;8.660;2023-06-19T14:11:47;2.97;;;2.42;;
17340;SDS011;8788;49.930;8.660;2023-06-19T14:14:14;4.88;;;2.55;;
17340;SDS011;8788;49.930;8.660;2023-06-19T14:16:41;2.42;;;2.22;;
17340;SDS011;8788;49.930;8.660;2023-06-19T14:19:08;2.80;;;2.50;;
17340;SDS011;8788;49.930;8.660;2023-06-19T14:21:36;4.72;;;2.85;;
17340;SDS011;8788;49.930;8.660;2023-06-19T14:24:04;3.17;;;2.83;;
17340;SDS011;8788;49.930;8.660;2023-06-19T14:26:31;3.00;;;2.70;;
17340;SDS011;8788;49.930;8.660;2023-06-19T14:28:58;3.25;;;2.88;;
17340;SDS011;8788;49.930;8.660;2023-06-19T14:31:25;2.88;;;2.30;;
17340;SDS011;8788;49.930;8.660;2023-06-19T14:33:52;3.58;;;3.20;;
17340;SDS011;8788;49.930;8.660;2023-06-19T14:36:19;2.47;;;2.28;;
17340;SDS011;8788;49.930;8.660;2023-06-19T14:38:48;2.65;;;2.42;;
17340;SDS011;8788;49.930;8.660;2023-06-19T14:41:15;2.78;;;2.53;;
17340;SDS011;8788;49.930;8.660;2023-06-19T14:43:42;3.22;;;2.47;;
17340;SDS011;8788;49.930;8.660;2023-06-19T14:46:09;2.88;;;2.67;;
17340;SDS011;8788;49.930;8.660;2023-06-19T14:48:36;3.70;;;2.92;;
17340;SDS011;8788;49.930;8.660;2023-06-19T14:51:03;3.58;;;2.25;;
17340;SDS011;8788;49.930;8.660;2023-06-19T14:53:30;2.60;;;2.40;;
17340;SDS011;8788;49.930;8.660;2023-06-19T14:55:59;2.85;;;2.08;;
17340;SDS011;8788;49.930;8.660;2023-06-19T14:58:27;2.50;;;2.30;;
17340;SDS011;8788;49.930;8.660;2023-06-19T15:00:54;3.45;;;1.88;;
17340;SDS011;8788;49.930;8.660;2023-06-19T15:03:23;2.40;;;2.22;;
17340;SDS011;8788;49.930;8.660;2023-06-19T15:05:50;3.55;;;2.05;;